createdAt,value
2022-11-29T00:01:09.659Z,17.73
2022-11-29T00:03:39.201Z,14.97
2022-11-29T00:06:07.956Z,14.37
2022-11-29T00:08:36.657Z,18.30
2022-11-29T00:11:05.555Z,15.50
2022-11-29T00:13:33.734Z,20.40
2022-11-29T00:16:05.562Z,20.13
2022-11-29T00:18:34.084Z,21.00
2022-11-29T00:21:06.338Z,17.67
2022-11-29T00:23:34.501Z,14.13
2022-11-29T00:26:04.810Z,17.73
2022-11-29T00:28:32.953Z,18.83
2022-11-29T00:31:01.191Z,14.33
2022-11-29T00:33:29.398Z,14.47
2022-11-29T00:35:57.895Z,17.53
2022-11-29T00:38:29.284Z,16.07
2022-11-29T00:40:57.455Z,17.93
2022-11-29T00:43:25.597Z,18.00
2022-11-29T00:45:53.800Z,15.13
2022-11-29T00:48:22.003Z,14.47
2022-11-29T00:50:50.164Z,15.00
2022-11-29T00:53:18.592Z,16.10
2022-11-29T00:55:49.347Z,13.63
2022-11-29T00:58:17.580Z,14.70
2022-11-29T01:00:45.783Z,16.47
2022-11-29T01:03:13.940Z,15.77
2022-11-29T01:05:42.847Z,16.17
2022-11-29T01:08:11.228Z,16.00
2022-11-29T01:10:39.465Z,14.63
2022-11-29T01:13:09.171Z,17.27
2022-11-29T01:15:37.861Z,16.70
2022-11-29T01:18:06.036Z,20.70
2022-11-29T01:20:34.283Z,23.00
2022-11-29T01:23:02.551Z,18.73
2022-11-29T01:25:32.035Z,14.47
2022-11-29T01:28:00.197Z,19.10
2022-11-29T01:30:29.717Z,13.67
2022-11-29T01:32:57.938Z,10.43
2022-11-29T01:35:26.074Z,18.53
2022-11-29T01:37:54.238Z,15.43
2022-11-29T01:40:22.384Z,14.50
2022-11-29T01:42:50.523Z,16.90
2022-11-29T01:45:23.697Z,18.63
2022-11-29T01:47:54.467Z,14.97
2022-11-29T01:50:22.814Z,18.70
2022-11-29T01:52:51.070Z,13.07
2022-11-29T01:55:19.457Z,15.13
2022-11-29T01:57:48.425Z,17.43
2022-11-29T02:00:18.545Z,20.23
2022-11-29T02:02:48.880Z,25.93
2022-11-29T02:05:19.103Z,12.53
2022-11-29T02:07:49.258Z,15.83
2022-11-29T02:10:17.878Z,15.77
2022-11-29T02:12:56.093Z,16.60
2022-11-29T02:15:30.082Z,21.60
2022-11-29T02:18:04.449Z,14.97
2022-11-29T02:20:51.409Z,17.37
2022-11-29T02:23:36.902Z,14.43
2022-11-29T02:26:10.153Z,20.80
2022-11-29T02:28:58.388Z,13.23
2022-11-29T02:31:45.089Z,14.33
2022-11-29T02:34:22.811Z,18.90
2022-11-29T02:37:11.271Z,18.00
2022-11-29T02:39:48.132Z,17.23
2022-11-29T02:42:24.185Z,16.77
2022-11-29T02:44:59.175Z,15.03
2022-11-29T02:47:29.880Z,14.43
2022-11-29T02:50:04.997Z,17.07
2022-11-29T02:52:39.033Z,17.03
2022-11-29T02:55:10.733Z,12.63
2022-11-29T02:57:42.107Z,16.33
2022-11-29T03:00:13.402Z,16.00
2022-11-29T03:02:44.694Z,18.60
2022-11-29T03:05:20.832Z,13.10
2022-11-29T03:07:53.459Z,14.93
2022-11-29T03:10:26.601Z,18.83
2022-11-29T03:12:56.118Z,21.50
2022-11-29T03:15:29.074Z,14.33
2022-11-29T03:18:03.550Z,18.57
2022-11-29T03:20:39.414Z,13.30
2022-11-29T03:23:15.550Z,16.70
2022-11-29T03:25:45.525Z,13.60
2022-11-29T03:28:16.657Z,14.43
2022-11-29T03:30:49.457Z,13.07
2022-11-29T03:33:23.243Z,14.33
2022-11-29T03:35:55.891Z,21.70
2022-11-29T03:38:27.744Z,16.37
2022-11-29T03:40:57.666Z,14.17
2022-11-29T03:43:29.758Z,14.63
2022-11-29T03:46:00.206Z,17.00
2022-11-29T03:48:31.743Z,18.60
2022-11-29T03:51:03.239Z,18.50
2022-11-29T03:53:35.324Z,18.07
2022-11-29T03:56:04.445Z,17.37
2022-11-29T03:58:35.574Z,18.80
2022-11-29T04:01:13.120Z,20.10
2022-11-29T04:03:54.206Z,17.50
2022-11-29T04:06:29.866Z,17.60
2022-11-29T04:09:23.535Z,21.10
2022-11-29T04:12:06.668Z,23.57
2022-11-29T04:14:53.812Z,19.20
2022-11-29T04:17:36.856Z,21.20
2022-11-29T04:20:10.809Z,17.83
2022-11-29T04:22:53.978Z,17.70
2022-11-29T04:25:34.670Z,17.30
2022-11-29T04:28:13.977Z,18.60
2022-11-29T04:30:49.491Z,15.97
2022-11-29T04:33:36.889Z,23.53
2022-11-29T04:36:12.640Z,17.03
2022-11-29T04:39:07.878Z,22.10
2022-11-29T04:41:44.790Z,25.83
2022-11-29T04:44:29.210Z,21.83
2022-11-29T04:47:01.809Z,22.73
2022-11-29T04:49:39.190Z,21.50
2022-11-29T04:52:17.329Z,25.50
2022-11-29T04:54:49.173Z,22.17
2022-11-29T04:57:36.929Z,22.27
2022-11-29T05:00:08.079Z,24.07
2022-11-29T05:02:38.857Z,25.80
2022-11-29T05:05:15.155Z,23.97
2022-11-29T05:07:48.133Z,26.23
2022-11-29T05:10:22.265Z,24.47
2022-11-29T05:12:55.208Z,26.37
2022-11-29T05:15:51.663Z,23.40
2022-11-29T05:18:22.359Z,22.10
2022-11-29T05:20:55.529Z,26.57
2022-11-29T05:23:31.177Z,24.30
2022-11-29T05:26:01.910Z,28.70
2022-11-29T05:28:34.998Z,22.93
2022-11-29T05:31:11.501Z,30.97
2022-11-29T05:33:47.268Z,26.07
2022-11-29T05:36:19.418Z,21.43
2022-11-29T05:38:55.868Z,23.43
2022-11-29T05:41:36.055Z,26.67
2022-11-29T05:44:09.690Z,26.57
2022-11-29T05:46:41.665Z,27.53
2022-11-29T05:49:17.227Z,24.33
2022-11-29T05:51:48.306Z,26.87
2022-11-29T05:54:21.498Z,28.90
2022-11-29T05:56:53.182Z,31.90
2022-11-29T05:59:25.013Z,34.30
2022-11-29T06:01:57.280Z,29.00
2022-11-29T06:04:29.442Z,28.53
2022-11-29T06:07:02.027Z,28.53
2022-11-29T06:09:31.706Z,27.37
2022-11-29T06:12:02.606Z,27.73
2022-11-29T06:14:46.035Z,36.20
2022-11-29T06:17:26.313Z,31.60
2022-11-29T06:20:09.146Z,31.30
2022-11-29T06:23:01.850Z,36.93
2022-11-29T06:25:39.268Z,35.13
2022-11-29T06:28:15.563Z,30.83
2022-11-29T06:30:54.106Z,33.77
2022-11-29T06:33:24.369Z,31.40
2022-11-29T06:35:57.745Z,38.30
2022-11-29T06:38:27.585Z,30.93
2022-11-29T06:41:01.511Z,38.77
2022-11-29T06:43:30.658Z,32.80
2022-11-29T06:46:02.821Z,27.90
2022-11-29T06:48:34.438Z,37.63
2022-11-29T06:51:07.584Z,26.37
2022-11-29T06:53:40.578Z,35.43
2022-11-29T06:56:15.316Z,37.07
2022-11-29T06:58:47.657Z,33.90
2022-11-29T07:01:21.758Z,34.50
2022-11-29T07:04:00.635Z,35.73
2022-11-29T07:06:30.067Z,43.53
2022-11-29T07:09:00.657Z,35.00
2022-11-29T07:11:29.544Z,32.87
2022-11-29T07:13:57.973Z,37.13
2022-11-29T07:16:29.586Z,36.60
2022-11-29T07:19:04.815Z,46.20
2022-11-29T07:21:41.088Z,39.97
2022-11-29T07:24:12.832Z,34.97
2022-11-29T07:26:44.006Z,43.17
2022-11-29T07:29:23.709Z,48.20
2022-11-29T07:31:59.470Z,36.13
2022-11-29T07:34:35.242Z,40.17
2022-11-29T07:37:05.657Z,49.17
2022-11-29T07:39:41.247Z,52.13
2022-11-29T07:42:12.161Z,53.33
2022-11-29T07:44:41.433Z,43.90
2022-11-29T07:47:11.205Z,40.27
2022-11-29T07:49:39.379Z,41.43
2022-11-29T07:52:07.554Z,47.20
2022-11-29T07:54:35.786Z,41.23
2022-11-29T07:57:03.981Z,43.00
2022-11-29T07:59:32.113Z,44.07
2022-11-29T08:02:00.479Z,40.30
2022-11-29T08:04:30.022Z,44.53
2022-11-29T08:06:59.486Z,46.87
2022-11-29T08:09:27.689Z,43.90
2022-11-29T08:11:55.846Z,46.90
2022-11-29T08:14:24.408Z,55.00
2022-11-29T08:16:52.563Z,51.43
2022-11-29T08:19:20.730Z,49.30
2022-11-29T08:21:51.462Z,44.80
2022-11-29T08:24:19.628Z,41.27
2022-11-29T08:26:47.786Z,41.20
2022-11-29T08:29:16.076Z,33.50
2022-11-29T08:31:44.468Z,42.90
2022-11-29T08:34:12.859Z,34.93
2022-11-29T08:36:40.998Z,38.87
2022-11-29T08:39:10.548Z,36.93
2022-11-29T08:41:38.727Z,44.83
2022-11-29T08:44:07.131Z,39.80
2022-11-29T08:46:49.223Z,40.57
2022-11-29T08:49:17.515Z,46.50
2022-11-29T08:51:45.836Z,42.30
2022-11-29T08:54:14.351Z,44.37
2022-11-29T08:59:30.628Z,43.40
2022-11-29T09:01:58.965Z,36.60
2022-11-29T09:04:27.165Z,42.20
2022-11-29T09:06:55.392Z,45.10
2022-11-29T09:09:24.968Z,42.03
2022-11-29T09:11:53.144Z,40.43
2022-11-29T09:14:22.767Z,44.50
2022-11-29T09:16:51.001Z,54.33
2022-11-29T09:19:19.308Z,43.93
2022-11-29T09:21:47.485Z,39.03
2022-11-29T09:24:15.960Z,53.23
2022-11-29T09:26:48.206Z,52.67
2022-11-29T09:29:17.472Z,51.10
2022-11-29T09:31:45.876Z,58.63
2022-11-29T09:34:14.150Z,59.53
2022-11-29T09:36:43.961Z,54.07
2022-11-29T09:39:13.232Z,70.20
2022-11-29T09:41:59.358Z,71.50
2022-11-29T09:44:32.336Z,57.97
2022-11-29T09:47:05.501Z,63.00
2022-11-29T09:49:44.842Z,56.03
2022-11-29T09:52:18.815Z,65.97
2022-11-29T09:54:52.726Z,60.13
2022-11-29T09:57:21.812Z,62.33
2022-11-29T09:59:53.861Z,65.67
2022-11-29T10:02:24.952Z,55.50
2022-11-29T10:04:55.059Z,51.37
2022-11-29T10:07:27.154Z,58.87
2022-11-29T10:09:57.095Z,52.33
2022-11-29T10:12:29.614Z,51.87
2022-11-29T10:15:01.035Z,46.57
2022-11-29T10:17:33.390Z,58.77
2022-11-29T10:20:05.314Z,56.20
2022-11-29T10:22:38.249Z,53.33
2022-11-29T10:25:07.748Z,59.87
2022-11-29T10:27:43.248Z,52.17
2022-11-29T10:30:16.295Z,45.00
2022-11-29T10:32:45.941Z,40.67
2022-11-29T10:35:14.984Z,45.33
2022-11-29T10:37:56.393Z,39.17
2022-11-29T10:40:35.276Z,38.83
2022-11-29T10:43:04.037Z,38.03
2022-11-29T10:45:34.984Z,39.43
2022-11-29T10:48:05.005Z,36.93
2022-11-29T10:50:34.936Z,39.57
2022-11-29T10:53:05.973Z,39.23
2022-11-29T10:55:37.927Z,40.57
2022-11-29T10:58:10.364Z,35.90
2022-11-29T11:00:47.720Z,32.40
2022-11-29T11:03:19.950Z,39.80
2022-11-29T11:05:59.340Z,41.97
2022-11-29T11:08:27.898Z,36.53
2022-11-29T11:11:01.184Z,46.33
2022-11-29T11:13:31.096Z,48.70
2022-11-29T11:16:08.965Z,44.40
2022-11-29T11:18:37.879Z,42.17
2022-11-29T11:21:09.249Z,46.17
2022-11-29T11:23:42.564Z,42.63
2022-11-29T11:26:11.964Z,47.00
2022-11-29T11:28:41.869Z,48.47
2022-11-29T11:31:12.161Z,48.90
2022-11-29T11:33:41.042Z,47.20
2022-11-29T11:36:10.842Z,38.27
2022-11-29T11:38:39.815Z,43.93
2022-11-29T11:41:46.439Z,46.67
2022-11-29T11:44:46.368Z,45.57
2022-11-29T11:47:17.702Z,44.63
2022-11-29T11:49:50.200Z,41.63
2022-11-29T11:52:21.425Z,45.80
2022-11-29T11:54:51.817Z,43.53
2022-11-29T11:57:20.694Z,42.73
2022-11-29T11:59:49.611Z,40.10
2022-11-29T12:02:29.811Z,37.60
2022-11-29T12:04:59.241Z,41.30
2022-11-29T12:08:05.723Z,39.83
2022-11-29T12:10:20.742Z,39.90
2022-11-29T12:12:50.288Z,44.13
2022-11-29T12:15:20.472Z,36.13
2022-11-29T12:17:51.327Z,36.60
2022-11-29T12:20:22.095Z,36.30
2022-11-29T12:22:56.884Z,30.70
2022-11-29T12:25:28.794Z,43.80
2022-11-29T12:27:57.021Z,40.50
2022-11-29T12:30:25.253Z,35.13
2022-11-29T12:33:04.364Z,35.20
2022-11-29T12:35:55.400Z,38.33
2022-11-29T12:38:34.022Z,33.07
2022-11-29T12:41:08.014Z,35.17
2022-11-29T12:43:45.567Z,34.73
2022-11-29T12:46:17.280Z,31.57
2022-11-29T12:48:50.852Z,35.40
2022-11-29T12:51:21.467Z,33.80
2022-11-29T12:54:00.040Z,30.83
2022-11-29T12:56:29.331Z,37.57
2022-11-29T12:59:15.346Z,28.80
2022-11-29T13:01:51.101Z,40.37
2022-11-29T13:04:24.064Z,35.43
2022-11-29T13:06:57.327Z,30.93
2022-11-29T13:09:35.874Z,33.13
2022-11-29T13:12:06.882Z,28.80
2022-11-29T13:14:44.891Z,27.00
2022-11-29T13:17:19.627Z,28.07
2022-11-29T13:19:52.815Z,30.03
2022-11-29T13:22:23.861Z,30.13
2022-11-29T13:24:53.728Z,27.17
2022-11-29T13:27:24.971Z,27.50
2022-11-29T13:29:53.257Z,31.77
2022-11-29T13:32:30.827Z,29.10
2022-11-29T13:35:03.093Z,27.87
2022-11-29T13:37:33.685Z,25.60
2022-11-29T13:40:07.301Z,25.33
2022-11-29T13:42:38.784Z,31.03
2022-11-29T13:45:09.498Z,28.73
2022-11-29T13:47:49.230Z,29.27
2022-11-29T13:50:32.266Z,30.17
2022-11-29T13:53:06.134Z,30.10
2022-11-29T13:55:34.323Z,22.67
2022-11-29T13:58:16.893Z,26.30
2022-11-29T14:00:50.706Z,29.87
2022-11-29T14:03:32.919Z,30.90
2022-11-29T14:06:08.435Z,31.27
2022-11-29T14:09:10.208Z,26.90
2022-11-29T14:11:28.567Z,34.90
2022-11-29T14:13:59.607Z,30.03
2022-11-29T14:16:30.801Z,29.73
2022-11-29T14:19:20.716Z,30.43
2022-11-29T14:22:07.664Z,31.17
2022-11-29T14:24:44.050Z,31.70
2022-11-29T14:27:31.132Z,32.50
2022-11-29T14:29:59.307Z,38.07
2022-11-29T14:32:32.104Z,40.23
2022-11-29T14:35:03.785Z,37.07
2022-11-29T14:37:35.018Z,45.07
2022-11-29T14:40:13.389Z,41.23
2022-11-29T14:42:47.145Z,36.97
2022-11-29T14:45:23.297Z,36.13
2022-11-29T14:47:51.573Z,40.50
2022-11-29T14:50:30.062Z,41.17
2022-11-29T14:52:58.439Z,32.57
2022-11-29T14:55:35.428Z,39.60
2022-11-29T14:58:12.640Z,46.00
2022-11-29T15:01:01.807Z,39.33
2022-11-29T15:03:34.901Z,40.03
2022-11-29T15:06:10.441Z,39.90
2022-11-29T15:08:40.661Z,36.50
2022-11-29T15:11:16.385Z,49.57
2022-11-29T15:13:50.420Z,41.73
2022-11-29T15:16:29.297Z,44.73
2022-11-29T15:19:07.586Z,43.67
2022-11-29T15:21:39.512Z,43.23
2022-11-29T15:24:11.701Z,40.83
2022-11-29T15:26:41.221Z,44.70
2022-11-29T15:29:15.729Z,42.03
2022-11-29T15:31:44.673Z,37.93
2022-11-29T15:34:21.289Z,41.70
2022-11-29T15:36:49.486Z,41.77
2022-11-29T15:39:31.741Z,43.93
2022-11-29T15:42:05.290Z,44.90
2022-11-29T15:44:33.803Z,41.77
2022-11-29T15:47:18.291Z,49.70
2022-11-29T15:49:46.446Z,44.93
2022-11-29T15:52:20.511Z,46.40
2022-11-29T15:54:51.165Z,47.00
2022-11-29T15:57:24.441Z,50.40
2022-11-29T15:59:54.121Z,49.33
2022-11-29T16:02:24.297Z,49.33
2022-11-29T16:04:54.651Z,54.87
2022-11-29T16:07:24.571Z,47.50
2022-11-29T16:09:56.898Z,52.40
2022-11-29T16:12:26.672Z,60.30
2022-11-29T16:14:55.959Z,55.10
2022-11-29T16:17:26.825Z,55.00
2022-11-29T16:20:06.151Z,58.60
2022-11-29T16:22:34.343Z,54.80
2022-11-29T16:25:06.653Z,56.93
2022-11-29T16:27:36.917Z,60.20
2022-11-29T16:30:05.807Z,53.50
2022-11-29T16:32:35.095Z,55.27
2022-11-29T16:35:07.257Z,57.97
2022-11-29T16:37:38.627Z,56.07
2022-11-29T16:40:07.370Z,57.70
2022-11-29T16:42:36.871Z,63.83
2022-11-29T16:45:09.249Z,67.70
2022-11-29T16:47:57.983Z,62.77
2022-11-29T16:50:26.565Z,61.90
2022-11-29T16:52:56.927Z,66.93
2022-11-29T16:55:25.789Z,60.40
2022-11-29T16:57:55.330Z,67.50
2022-11-29T17:00:25.359Z,62.93
2022-11-29T17:02:53.533Z,67.33
2022-11-29T17:05:21.723Z,57.27
2022-11-29T17:07:50.020Z,76.00
2022-11-29T17:10:19.629Z,65.17
2022-11-29T17:12:48.515Z,61.57
2022-11-29T17:15:18.479Z,71.53
2022-11-29T17:17:46.656Z,72.93
2022-11-29T17:20:15.210Z,65.70
2022-11-29T17:22:43.429Z,67.97
2022-11-29T17:25:11.859Z,75.47
2022-11-29T17:27:40.024Z,76.23
2022-11-29T17:30:08.814Z,69.33
2022-11-29T17:32:38.939Z,80.13
2022-11-29T17:35:07.709Z,67.13
2022-11-29T17:37:35.865Z,72.30
2022-11-29T17:40:04.053Z,80.17
2022-11-29T17:42:32.200Z,74.60
2022-11-29T17:45:00.374Z,77.70
2022-11-29T17:47:28.528Z,78.77
2022-11-29T17:49:58.050Z,79.77
2022-11-29T17:52:26.238Z,66.23
2022-11-29T17:54:54.395Z,71.33
2022-11-29T17:57:22.535Z,65.43
2022-11-29T17:59:50.679Z,68.30
2022-11-29T18:02:18.935Z,64.73
2022-11-29T18:04:47.221Z,73.10
2022-11-29T18:07:17.244Z,58.53
2022-11-29T18:09:46.631Z,62.87
2022-11-29T18:12:15.373Z,65.73
2022-11-29T18:14:43.585Z,68.53
2022-11-29T18:17:11.781Z,57.57
2022-11-29T18:19:39.992Z,54.90
2022-11-29T18:22:08.335Z,54.90
2022-11-29T18:24:43.362Z,48.40
2022-11-29T18:27:11.525Z,52.60
2022-11-29T18:29:39.664Z,47.03
2022-11-29T18:32:07.847Z,41.27
2022-11-29T18:34:35.993Z,52.93
2022-11-29T18:37:04.162Z,48.00
2022-11-29T18:39:32.320Z,45.83
2022-11-29T18:42:01.836Z,51.37
2022-11-29T18:44:30.176Z,51.63
2022-11-29T18:46:58.609Z,59.27
2022-11-29T18:49:26.789Z,50.97
2022-11-29T18:51:54.958Z,46.27
2022-11-29T18:54:23.134Z,52.30
2022-11-29T18:56:51.979Z,51.57
2022-11-29T18:59:22.886Z,42.80
2022-11-29T19:01:51.123Z,40.77
2022-11-29T19:04:20.426Z,40.70
2022-11-29T19:06:48.963Z,43.20
2022-11-29T19:09:18.050Z,41.50
2022-11-29T19:11:46.224Z,48.07
2022-11-29T19:14:14.395Z,52.60
2022-11-29T19:16:45.227Z,49.23
2022-11-29T19:19:13.699Z,53.67
2022-11-29T19:21:42.060Z,50.27
2022-11-29T19:24:14.716Z,50.90
2022-11-29T19:26:44.193Z,49.23
2022-11-29T19:29:12.665Z,55.70
2022-11-29T19:31:40.916Z,55.13
2022-11-29T19:34:10.499Z,50.67
2022-11-29T19:36:42.498Z,55.87
2022-11-29T19:39:11.641Z,52.60
2022-11-29T19:41:39.949Z,48.77
2022-11-29T19:44:08.835Z,52.60
2022-11-29T19:46:37.819Z,43.00
2022-11-29T19:49:07.149Z,44.50
2022-11-29T19:51:36.909Z,54.83
2022-11-29T19:54:06.246Z,50.53
2022-11-29T19:56:34.647Z,55.10
2022-11-29T19:59:02.838Z,51.40
2022-11-29T20:01:39.631Z,54.80
2022-11-29T20:04:09.506Z,45.47
2022-11-29T20:06:39.191Z,39.60
2022-11-29T20:09:07.520Z,44.40
2022-11-29T20:11:35.697Z,43.00
2022-11-29T20:14:04.655Z,43.23
2022-11-29T20:16:33.401Z,44.80
2022-11-29T20:19:01.658Z,52.07
2022-11-29T20:21:30.952Z,45.63
2022-11-29T20:24:01.348Z,44.17
2022-11-29T20:26:29.739Z,49.80
2022-11-29T20:28:57.905Z,52.30
2022-11-29T20:31:26.202Z,42.80
2022-11-29T20:33:57.171Z,48.40
2022-11-29T20:36:32.959Z,52.37
2022-11-29T20:39:06.429Z,48.50
2022-11-29T20:41:39.795Z,50.07
2022-11-29T20:44:08.090Z,46.10
2022-11-29T20:46:36.405Z,46.03
2022-11-29T20:49:06.698Z,52.03
2022-11-29T20:51:38.605Z,53.47
2022-11-29T20:54:08.162Z,50.17
2022-11-29T20:56:36.327Z,46.17
2022-11-29T20:59:04.484Z,46.30
2022-11-29T21:01:33.353Z,43.40
2022-11-29T21:04:01.640Z,47.03
2022-11-29T21:06:29.900Z,46.63
2022-11-29T21:08:58.047Z,42.70
2022-11-29T21:11:27.851Z,46.40
2022-11-29T21:13:56.266Z,50.03
2022-11-29T21:16:28.603Z,49.40
2022-11-29T21:18:58.581Z,48.83
2022-11-29T21:21:30.053Z,43.83
2022-11-29T21:24:02.134Z,42.83
2022-11-29T21:26:37.178Z,39.67
2022-11-29T21:29:14.291Z,39.83
2022-11-29T21:31:42.693Z,44.90
2022-11-29T21:34:10.918Z,39.63
2022-11-29T21:36:39.551Z,39.70
2022-11-29T21:39:08.441Z,46.10
2022-11-29T21:41:38.218Z,41.80
2022-11-29T21:44:07.905Z,38.23
2022-11-29T21:46:36.612Z,45.33
2022-11-29T21:49:05.558Z,40.00
2022-11-29T21:51:33.845Z,46.73
2022-11-29T21:54:02.933Z,44.43
2022-11-29T21:56:31.066Z,39.13
2022-11-29T21:59:00.553Z,36.33
2022-11-29T22:01:29.360Z,48.57
2022-11-29T22:03:57.621Z,41.07
2022-11-29T22:06:26.309Z,42.03
2022-11-29T22:08:54.589Z,53.30
2022-11-29T22:11:31.389Z,44.80
2022-11-29T22:14:17.869Z,42.07
2022-11-29T22:16:46.966Z,45.07
2022-11-29T22:19:16.803Z,51.93
2022-11-29T22:21:45.860Z,43.37
2022-11-29T22:24:14.591Z,45.67
2022-11-29T22:26:43.614Z,37.23
2022-11-29T22:29:14.032Z,42.97
2022-11-29T22:31:42.549Z,37.33
2022-11-29T22:34:11.082Z,48.57
2022-11-29T22:36:40.007Z,43.47
2022-11-29T22:39:08.736Z,47.03
2022-11-29T22:41:37.454Z,33.97
2022-11-29T22:44:05.958Z,46.23
2022-11-29T22:46:36.288Z,43.17
2022-11-29T22:49:04.833Z,42.83
2022-11-29T22:51:34.233Z,44.47
2022-11-29T22:54:03.030Z,42.13
2022-11-29T22:56:32.302Z,35.70
2022-11-29T22:59:01.373Z,39.90
2022-11-29T23:01:30.505Z,39.27
2022-11-29T23:04:01.178Z,41.83
2022-11-29T23:06:29.991Z,38.73
2022-11-29T23:08:59.578Z,42.17
2022-11-29T23:11:28.498Z,37.87
2022-11-29T23:13:56.785Z,44.97
2022-11-29T23:16:26.030Z,43.00
2022-11-29T23:18:54.370Z,35.40
2022-11-29T23:21:24.879Z,34.30
2022-11-29T23:23:56.269Z,41.63
2022-11-29T23:26:25.967Z,42.97
2022-11-29T23:28:54.384Z,49.83
2022-11-29T23:31:23.510Z,45.33
2022-11-29T23:33:51.822Z,41.80
2022-11-29T23:36:20.025Z,42.27
2022-11-29T23:38:49.559Z,47.30
2022-11-29T23:41:18.254Z,46.70
2022-11-29T23:43:46.405Z,42.10
2022-11-29T23:46:15.698Z,43.63
2022-11-29T23:48:44.006Z,42.33
2022-11-29T23:51:12.694Z,44.47
2022-11-29T23:53:41.026Z,40.73
2022-11-29T23:56:13.285Z,48.07
2022-11-29T23:58:41.606Z,45.43
